sensor_id;sensor_type;location;lat;lon;timestamp;P1;durP1;ratioP1;P2;durP2;ratioP2
10315;SDS011;5203;48.976;8.306;2022-07-04T00:00:36;5.93;;;4.25;;
10315;SDS011;5203;48.976;8.306;2022-07-04T00:03:01;4.75;;;4.43;;
10315;SDS011;5203;48.976;8.306;2022-07-04T00:05:27;5.10;;;4.18;;
10315;SDS011;5203;48.976;8.306;2022-07-04T00:07:53;4.45;;;4.15;;
10315;SDS011;5203;48.976;8.306;2022-07-04T00:10:19;4.53;;;4.28;;
10315;SDS011;5203;48.976;8.306;2022-07-04T00:12:48;5.25;;;4.53;;
10315;SDS011;5203;48.976;8.306;2022-07-04T00:15:14;5.35;;;4.95;;
10315;SDS011;5203;48.976;8.306;2022-07-04T00:17:41;4.50;;;4.22;;
10315;SDS011;5203;48.976;8.306;2022-07-04T00:20:07;4.65;;;4.38;;
10315;SDS011;5203;48.976;8.306;2022-07-04T00:22:34;4.72;;;4.45;;
10315;SDS011;5203;48.976;8.306;2022-07-04T00:25:00;4.63;;;4.25;;
10315;SDS011;5203;48.976;8.306;2022-07-04T00:27:26;4.57;;;4.28;;
10315;SDS011;5203;48.976;8.306;2022-07-04T00:29:51;4.35;;;4.05;;
10315;SDS011;5203;48.976;8.306;2022-07-04T00:32:17;4.68;;;4.38;;
10315;SDS011;5203;48.976;8.306;2022-07-04T00:34:43;4.53;;;4.15;;
10315;SDS011;5203;48.976;8.306;2022-07-04T00:37:09;4.95;;;4.55;;
10315;SDS011;5203;48.976;8.306;2022-07-04T00:39:35;4.38;;;4.15;;
10315;SDS011;5203;48.976;8.306;2022-07-04T00:42:01;4.85;;;4.45;;
10315;SDS011;5203;48.976;8.306;2022-07-04T00:44:27;4.32;;;4.03;;
10315;SDS011;5203;48.976;8.306;2022-07-04T00:46:53;4.32;;;4.13;;
10315;SDS011;5203;48.976;8.306;2022-07-04T00:49:18;4.63;;;4.28;;
10315;SDS011;5203;48.976;8.306;2022-07-04T00:51:44;5.18;;;4.80;;
10315;SDS011;5203;48.976;8.306;2022-07-04T00:54:13;4.30;;;4.10;;
10315;SDS011;5203;48.976;8.306;2022-07-04T00:56:40;5.10;;;4.68;;
10315;SDS011;5203;48.976;8.306;2022-07-04T00:59:08;4.70;;;4.40;;
10315;SDS011;5203;48.976;8.306;2022-07-04T01:01:34;5.07;;;4.60;;
10315;SDS011;5203;48.976;8.306;2022-07-04T01:04:03;4.82;;;4.53;;
10315;SDS011;5203;48.976;8.306;2022-07-04T01:06:30;4.95;;;4.55;;
10315;SDS011;5203;48.976;8.306;2022-07-04T01:08:57;4.80;;;4.38;;
10315;SDS011;5203;48.976;8.306;2022-07-04T01:11:24;5.05;;;4.70;;
10315;SDS011;5203;48.976;8.306;2022-07-04T01:13:49;5.45;;;4.95;;
10315;SDS011;5203;48.976;8.306;2022-07-04T01:16:15;4.70;;;4.40;;
10315;SDS011;5203;48.976;8.306;2022-07-04T01:18:41;4.70;;;4.40;;
10315;SDS011;5203;48.976;8.306;2022-07-04T01:21:07;4.70;;;4.30;;
10315;SDS011;5203;48.976;8.306;2022-07-04T01:23:37;4.95;;;4.45;;
10315;SDS011;5203;48.976;8.306;2022-07-04T01:26:06;4.78;;;4.47;;
10315;SDS011;5203;48.976;8.306;2022-07-04T01:28:33;4.53;;;4.20;;
10315;SDS011;5203;48.976;8.306;2022-07-04T01:30:59;4.70;;;4.40;;
10315;SDS011;5203;48.976;8.306;2022-07-04T01:33:25;4.53;;;4.13;;
10315;SDS011;5203;48.976;8.306;2022-07-04T01:35:51;4.43;;;4.13;;
10315;SDS011;5203;48.976;8.306;2022-07-04T01:38:16;4.65;;;4.28;;
10315;SDS011;5203;48.976;8.306;2022-07-04T01:40:42;5.10;;;4.35;;
10315;SDS011;5203;48.976;8.306;2022-07-04T01:43:08;4.15;;;3.95;;
10315;SDS011;5203;48.976;8.306;2022-07-04T01:45:34;4.70;;;3.97;;
10315;SDS011;5203;48.976;8.306;2022-07-04T01:48:03;4.60;;;4.20;;
10315;SDS011;5203;48.976;8.306;2022-07-04T01:50:33;4.30;;;4.10;;
10315;SDS011;5203;48.976;8.306;2022-07-04T01:52:59;4.63;;;4.22;;
10315;SDS011;5203;48.976;8.306;2022-07-04T01:55:25;4.10;;;3.80;;
10315;SDS011;5203;48.976;8.306;2022-07-04T01:57:51;4.53;;;4.22;;
10315;SDS011;5203;48.976;8.306;2022-07-04T02:00:16;4.55;;;4.15;;
10315;SDS011;5203;48.976;8.306;2022-07-04T02:03:03;4.18;;;3.92;;
10315;SDS011;5203;48.976;8.306;2022-07-04T02:05:29;4.30;;;4.10;;
10315;SDS011;5203;48.976;8.306;2022-07-04T02:07:55;4.57;;;4.28;;
10315;SDS011;5203;48.976;8.306;2022-07-04T02:10:21;4.22;;;4.03;;
10315;SDS011;5203;48.976;8.306;2022-07-04T02:12:47;4.90;;;4.15;;
10315;SDS011;5203;48.976;8.306;2022-07-04T02:15:29;4.18;;;3.97;;
10315;SDS011;5203;48.976;8.306;2022-07-04T02:18:00;4.38;;;3.97;;
10315;SDS011;5203;48.976;8.306;2022-07-04T02:20:26;4.40;;;4.20;;
10315;SDS011;5203;48.976;8.306;2022-07-04T02:22:55;4.22;;;4.03;;
10315;SDS011;5203;48.976;8.306;2022-07-04T02:25:22;4.55;;;4.25;;
10315;SDS011;5203;48.976;8.306;2022-07-04T02:27:48;4.60;;;4.30;;
10315;SDS011;5203;48.976;8.306;2022-07-04T02:30:14;4.20;;;4.00;;
10315;SDS011;5203;48.976;8.306;2022-07-04T02:32:40;5.22;;;4.10;;
10315;SDS011;5203;48.976;8.306;2022-07-04T02:35:06;4.97;;;4.72;;
10315;SDS011;5203;48.976;8.306;2022-07-04T02:37:33;4.70;;;4.32;;
10315;SDS011;5203;48.976;8.306;2022-07-04T02:39:59;4.38;;;4.07;;
10315;SDS011;5203;48.976;8.306;2022-07-04T02:42:28;5.15;;;4.72;;
10315;SDS011;5203;48.976;8.306;2022-07-04T02:44:55;4.53;;;4.22;;
10315;SDS011;5203;48.976;8.306;2022-07-04T02:47:20;4.50;;;4.20;;
10315;SDS011;5203;48.976;8.306;2022-07-04T02:49:46;4.47;;;4.18;;
10315;SDS011;5203;48.976;8.306;2022-07-04T02:52:11;4.75;;;4.45;;
10315;SDS011;5203;48.976;8.306;2022-07-04T02:54:38;5.00;;;4.70;;
10315;SDS011;5203;48.976;8.306;2022-07-04T02:57:04;4.38;;;4.18;;
10315;SDS011;5203;48.976;8.306;2022-07-04T02:59:30;4.32;;;4.03;;
10315;SDS011;5203;48.976;8.306;2022-07-04T03:01:56;4.60;;;4.20;;
10315;SDS011;5203;48.976;8.306;2022-07-04T03:04:24;4.65;;;4.30;;
10315;SDS011;5203;48.976;8.306;2022-07-04T03:06:50;4.43;;;4.22;;
10315;SDS011;5203;48.976;8.306;2022-07-04T03:09:16;5.93;;;4.47;;
10315;SDS011;5203;48.976;8.306;2022-07-04T03:11:42;4.65;;;4.35;;
10315;SDS011;5203;48.976;8.306;2022-07-04T03:14:09;5.00;;;4.60;;
10315;SDS011;5203;48.976;8.306;2022-07-04T03:16:35;4.60;;;4.30;;
10315;SDS011;5203;48.976;8.306;2022-07-04T03:19:00;4.55;;;4.15;;
10315;SDS011;5203;48.976;8.306;2022-07-04T03:21:26;4.22;;;4.03;;
10315;SDS011;5203;48.976;8.306;2022-07-04T03:23:51;4.60;;;4.30;;
10315;SDS011;5203;48.976;8.306;2022-07-04T03:26:24;5.38;;;4.55;;
10315;SDS011;5203;48.976;8.306;2022-07-04T03:28:54;4.35;;;4.15;;
10315;SDS011;5203;48.976;8.306;2022-07-04T03:31:21;5.00;;;4.35;;
10315;SDS011;5203;48.976;8.306;2022-07-04T03:33:47;4.45;;;4.20;;
10315;SDS011;5203;48.976;8.306;2022-07-04T03:36:13;4.30;;;4.10;;
10315;SDS011;5203;48.976;8.306;2022-07-04T03:38:38;4.70;;;4.40;;
10315;SDS011;5203;48.976;8.306;2022-07-04T03:41:04;4.95;;;4.65;;
10315;SDS011;5203;48.976;8.306;2022-07-04T03:43:30;4.63;;;4.32;;
10315;SDS011;5203;48.976;8.306;2022-07-04T03:45:55;4.75;;;4.55;;
10315;SDS011;5203;48.976;8.306;2022-07-04T03:48:21;4.25;;;4.03;;
10315;SDS011;5203;48.976;8.306;2022-07-04T03:50:46;4.70;;;4.50;;
10315;SDS011;5203;48.976;8.306;2022-07-04T03:53:12;4.65;;;4.43;;
10315;SDS011;5203;48.976;8.306;2022-07-04T03:55:38;4.90;;;4.60;;
10315;SDS011;5203;48.976;8.306;2022-07-04T03:58:04;4.75;;;4.38;;
10315;SDS011;5203;48.976;8.306;2022-07-04T04:00:31;4.90;;;4.60;;
10315;SDS011;5203;48.976;8.306;2022-07-04T04:02:57;4.80;;;4.47;;
10315;SDS011;5203;48.976;8.306;2022-07-04T04:05:23;4.90;;;4.47;;
10315;SDS011;5203;48.976;8.306;2022-07-04T04:07:59;4.95;;;4.65;;
10315;SDS011;5203;48.976;8.306;2022-07-04T04:10:27;5.05;;;4.72;;
10315;SDS011;5203;48.976;8.306;2022-07-04T04:12:54;5.22;;;4.78;;
10315;SDS011;5203;48.976;8.306;2022-07-04T04:15:19;5.15;;;4.85;;
10315;SDS011;5203;48.976;8.306;2022-07-04T04:17:46;5.38;;;4.88;;
10315;SDS011;5203;48.976;8.306;2022-07-04T04:20:11;4.93;;;4.63;;
10315;SDS011;5203;48.976;8.306;2022-07-04T04:22:37;4.70;;;4.30;;
10315;SDS011;5203;48.976;8.306;2022-07-04T04:25:03;4.32;;;4.13;;
10315;SDS011;5203;48.976;8.306;2022-07-04T04:27:29;4.80;;;4.40;;
10315;SDS011;5203;48.976;8.306;2022-07-04T04:29:55;4.85;;;4.65;;
10315;SDS011;5203;48.976;8.306;2022-07-04T04:32:23;5.55;;;4.70;;
10315;SDS011;5203;48.976;8.306;2022-07-04T04:34:49;11.52;;;5.25;;
10315;SDS011;5203;48.976;8.306;2022-07-04T04:37:15;6.40;;;5.30;;
10315;SDS011;5203;48.976;8.306;2022-07-04T04:39:41;5.18;;;4.72;;
10315;SDS011;5203;48.976;8.306;2022-07-04T04:42:06;5.38;;;4.88;;
10315;SDS011;5203;48.976;8.306;2022-07-04T04:44:32;4.72;;;4.50;;
10315;SDS011;5203;48.976;8.306;2022-07-04T04:46:58;5.10;;;4.80;;
10315;SDS011;5203;48.976;8.306;2022-07-04T04:49:23;5.05;;;4.75;;
10315;SDS011;5203;48.976;8.306;2022-07-04T04:51:49;5.32;;;4.75;;
10315;SDS011;5203;48.976;8.306;2022-07-04T04:54:15;5.75;;;5.10;;
10315;SDS011;5203;48.976;8.306;2022-07-04T04:56:40;4.75;;;4.40;;
10315;SDS011;5203;48.976;8.306;2022-07-04T04:59:06;5.15;;;4.63;;
10315;SDS011;5203;48.976;8.306;2022-07-04T05:01:33;5.20;;;4.78;;
10315;SDS011;5203;48.976;8.306;2022-07-04T05:03:59;5.13;;;4.82;;
10315;SDS011;5203;48.976;8.306;2022-07-04T05:06:25;5.97;;;5.35;;
10315;SDS011;5203;48.976;8.306;2022-07-04T05:08:51;5.10;;;4.80;;
10315;SDS011;5203;48.976;8.306;2022-07-04T05:11:17;4.72;;;4.32;;
10315;SDS011;5203;48.976;8.306;2022-07-04T05:13:42;4.82;;;4.53;;
10315;SDS011;5203;48.976;8.306;2022-07-04T05:16:08;5.20;;;4.90;;
10315;SDS011;5203;48.976;8.306;2022-07-04T05:18:34;4.63;;;4.30;;
10315;SDS011;5203;48.976;8.306;2022-07-04T05:20:59;4.80;;;4.38;;
10315;SDS011;5203;48.976;8.306;2022-07-04T05:23:25;5.13;;;4.50;;
10315;SDS011;5203;48.976;8.306;2022-07-04T05:25:51;5.22;;;4.72;;
10315;SDS011;5203;48.976;8.306;2022-07-04T05:28:19;4.40;;;4.10;;
10315;SDS011;5203;48.976;8.306;2022-07-04T05:30:45;4.53;;;4.20;;
10315;SDS011;5203;48.976;8.306;2022-07-04T05:33:11;4.55;;;4.25;;
10315;SDS011;5203;48.976;8.306;2022-07-04T05:35:36;4.70;;;4.40;;
10315;SDS011;5203;48.976;8.306;2022-07-04T05:38:02;4.90;;;4.50;;
10315;SDS011;5203;48.976;8.306;2022-07-04T05:40:28;4.30;;;4.10;;
10315;SDS011;5203;48.976;8.306;2022-07-04T05:42:54;4.68;;;4.38;;
10315;SDS011;5203;48.976;8.306;2022-07-04T05:45:23;4.53;;;4.22;;
10315;SDS011;5203;48.976;8.306;2022-07-04T05:47:51;4.72;;;4.38;;
10315;SDS011;5203;48.976;8.306;2022-07-04T05:50:17;5.35;;;4.40;;
10315;SDS011;5203;48.976;8.306;2022-07-04T05:52:43;4.70;;;4.35;;
10315;SDS011;5203;48.976;8.306;2022-07-04T05:55:11;4.75;;;4.25;;
10315;SDS011;5203;48.976;8.306;2022-07-04T05:57:37;6.20;;;4.97;;
10315;SDS011;5203;48.976;8.306;2022-07-04T06:00:03;5.05;;;4.60;;
10315;SDS011;5203;48.976;8.306;2022-07-04T06:02:30;4.78;;;4.38;;
10315;SDS011;5203;48.976;8.306;2022-07-04T06:04:56;5.25;;;4.63;;
10315;SDS011;5203;48.976;8.306;2022-07-04T06:07:21;4.45;;;4.25;;
10315;SDS011;5203;48.976;8.306;2022-07-04T06:09:47;5.00;;;4.60;;
10315;SDS011;5203;48.976;8.306;2022-07-04T06:12:13;5.63;;;4.45;;
10315;SDS011;5203;48.976;8.306;2022-07-04T06:14:38;5.10;;;4.68;;
10315;SDS011;5203;48.976;8.306;2022-07-04T06:17:04;4.45;;;4.15;;
10315;SDS011;5203;48.976;8.306;2022-07-04T06:19:30;5.15;;;4.28;;
10315;SDS011;5203;48.976;8.306;2022-07-04T06:21:56;5.13;;;4.72;;
10315;SDS011;5203;48.976;8.306;2022-07-04T06:24:22;4.20;;;4.00;;
10315;SDS011;5203;48.976;8.306;2022-07-04T06:26:48;4.30;;;4.03;;
10315;SDS011;5203;48.976;8.306;2022-07-04T06:29:14;5.10;;;4.20;;
10315;SDS011;5203;48.976;8.306;2022-07-04T06:31:39;5.15;;;4.63;;
10315;SDS011;5203;48.976;8.306;2022-07-04T06:34:05;4.80;;;4.50;;
10315;SDS011;5203;48.976;8.306;2022-07-04T06:36:50;4.53;;;4.22;;
10315;SDS011;5203;48.976;8.306;2022-07-04T06:39:15;5.15;;;4.75;;
10315;SDS011;5203;48.976;8.306;2022-07-04T06:41:41;5.80;;;4.45;;
10315;SDS011;5203;48.976;8.306;2022-07-04T06:44:07;4.88;;;4.47;;
10315;SDS011;5203;48.976;8.306;2022-07-04T06:46:32;4.95;;;4.55;;
10315;SDS011;5203;48.976;8.306;2022-07-04T06:48:58;4.90;;;4.55;;
10315;SDS011;5203;48.976;8.306;2022-07-04T06:51:24;5.32;;;4.82;;
10315;SDS011;5203;48.976;8.306;2022-07-04T06:53:50;5.25;;;4.85;;
10315;SDS011;5203;48.976;8.306;2022-07-04T06:56:16;4.95;;;4.65;;
10315;SDS011;5203;48.976;8.306;2022-07-04T06:58:42;4.72;;;4.43;;
10315;SDS011;5203;48.976;8.306;2022-07-04T07:01:08;5.25;;;4.75;;
10315;SDS011;5203;48.976;8.306;2022-07-04T07:03:34;4.78;;;4.50;;
10315;SDS011;5203;48.976;8.306;2022-07-04T07:06:00;4.30;;;4.00;;
10315;SDS011;5203;48.976;8.306;2022-07-04T07:08:28;5.07;;;4.68;;
10315;SDS011;5203;48.976;8.306;2022-07-04T07:10:55;5.13;;;4.63;;
10315;SDS011;5203;48.976;8.306;2022-07-04T07:13:21;5.03;;;4.55;;
10315;SDS011;5203;48.976;8.306;2022-07-04T07:15:46;5.10;;;4.65;;
10315;SDS011;5203;48.976;8.306;2022-07-04T07:18:12;5.18;;;4.78;;
10315;SDS011;5203;48.976;8.306;2022-07-04T07:20:38;4.93;;;4.47;;
10315;SDS011;5203;48.976;8.306;2022-07-04T07:23:04;4.88;;;4.32;;
10315;SDS011;5203;48.976;8.306;2022-07-04T07:25:30;6.30;;;4.93;;
10315;SDS011;5203;48.976;8.306;2022-07-04T07:27:56;5.85;;;5.03;;
10315;SDS011;5203;48.976;8.306;2022-07-04T07:30:23;5.25;;;4.82;;
10315;SDS011;5203;48.976;8.306;2022-07-04T07:32:49;5.07;;;4.63;;
10315;SDS011;5203;48.976;8.306;2022-07-04T07:35:14;4.78;;;4.40;;
10315;SDS011;5203;48.976;8.306;2022-07-04T07:37:40;4.35;;;4.05;;
10315;SDS011;5203;48.976;8.306;2022-07-04T07:40:07;5.18;;;4.80;;
10315;SDS011;5203;48.976;8.306;2022-07-04T07:42:33;4.80;;;4.43;;
10315;SDS011;5203;48.976;8.306;2022-07-04T07:44:59;4.93;;;4.60;;
10315;SDS011;5203;48.976;8.306;2022-07-04T07:47:24;4.70;;;4.40;;
10315;SDS011;5203;48.976;8.306;2022-07-04T07:49:50;4.75;;;4.45;;
10315;SDS011;5203;48.976;8.306;2022-07-04T07:52:16;5.35;;;4.95;;
10315;SDS011;5203;48.976;8.306;2022-07-04T07:54:42;6.85;;;4.75;;
10315;SDS011;5203;48.976;8.306;2022-07-04T07:57:09;4.85;;;4.53;;
10315;SDS011;5203;48.976;8.306;2022-07-04T07:59:35;5.13;;;4.65;;
10315;SDS011;5203;48.976;8.306;2022-07-04T08:02:00;5.68;;;5.18;;
10315;SDS011;5203;48.976;8.306;2022-07-04T08:04:26;5.65;;;5.00;;
10315;SDS011;5203;48.976;8.306;2022-07-04T08:07:06;5.25;;;4.82;;
10315;SDS011;5203;48.976;8.306;2022-07-04T08:09:33;5.05;;;4.65;;
10315;SDS011;5203;48.976;8.306;2022-07-04T08:12:00;4.93;;;4.55;;
10315;SDS011;5203;48.976;8.306;2022-07-04T08:14:27;5.00;;;4.70;;
10315;SDS011;5203;48.976;8.306;2022-07-04T08:16:54;5.85;;;5.07;;
10315;SDS011;5203;48.976;8.306;2022-07-04T08:19:23;5.55;;;4.78;;
10315;SDS011;5203;48.976;8.306;2022-07-04T08:21:50;5.97;;;4.82;;
10315;SDS011;5203;48.976;8.306;2022-07-04T08:24:16;5.00;;;4.70;;
10315;SDS011;5203;48.976;8.306;2022-07-04T08:26:42;5.30;;;4.75;;
10315;SDS011;5203;48.976;8.306;2022-07-04T08:29:08;4.90;;;4.53;;
10315;SDS011;5203;48.976;8.306;2022-07-04T08:31:44;5.00;;;4.60;;
10315;SDS011;5203;48.976;8.306;2022-07-04T08:34:10;5.13;;;4.68;;
10315;SDS011;5203;48.976;8.306;2022-07-04T08:36:35;5.22;;;4.82;;
10315;SDS011;5203;48.976;8.306;2022-07-04T08:39:01;4.75;;;4.55;;
10315;SDS011;5203;48.976;8.306;2022-07-04T08:41:27;5.95;;;4.82;;
10315;SDS011;5203;48.976;8.306;2022-07-04T08:43:58;4.80;;;4.50;;
10315;SDS011;5203;48.976;8.306;2022-07-04T08:46:24;5.63;;;5.15;;
10315;SDS011;5203;48.976;8.306;2022-07-04T08:48:52;5.53;;;4.10;;
10315;SDS011;5203;48.976;8.306;2022-07-04T08:54:10;5.88;;;4.47;;
10315;SDS011;5203;48.976;8.306;2022-07-04T08:56:56;4.72;;;4.43;;
10315;SDS011;5203;48.976;8.306;2022-07-04T08:59:40;4.78;;;4.47;;
10315;SDS011;5203;48.976;8.306;2022-07-04T09:02:14;4.78;;;4.47;;
10315;SDS011;5203;48.976;8.306;2022-07-04T09:04:42;5.43;;;5.07;;
10315;SDS011;5203;48.976;8.306;2022-07-04T09:07:12;5.00;;;4.70;;
10315;SDS011;5203;48.976;8.306;2022-07-04T09:09:39;4.97;;;4.68;;
10315;SDS011;5203;48.976;8.306;2022-07-04T09:12:06;5.55;;;4.95;;
10315;SDS011;5203;48.976;8.306;2022-07-04T09:14:36;5.00;;;4.65;;
10315;SDS011;5203;48.976;8.306;2022-07-04T09:17:02;4.75;;;4.35;;
10315;SDS011;5203;48.976;8.306;2022-07-04T09:19:29;4.45;;;4.15;;
10315;SDS011;5203;48.976;8.306;2022-07-04T09:21:56;5.18;;;4.32;;
10315;SDS011;5203;48.976;8.306;2022-07-04T09:29:59;4.68;;;4.38;;
10315;SDS011;5203;48.976;8.306;2022-07-04T09:32:39;6.05;;;4.75;;
10315;SDS011;5203;48.976;8.306;2022-07-04T09:35:10;5.50;;;5.10;;
10315;SDS011;5203;48.976;8.306;2022-07-04T09:40:07;5.20;;;4.72;;
10315;SDS011;5203;48.976;8.306;2022-07-04T09:42:39;4.95;;;4.55;;
10315;SDS011;5203;48.976;8.306;2022-07-04T09:45:06;5.53;;;5.13;;
10315;SDS011;5203;48.976;8.306;2022-07-04T09:47:34;5.05;;;4.75;;
10315;SDS011;5203;48.976;8.306;2022-07-04T09:52:27;5.90;;;5.50;;
10315;SDS011;5203;48.976;8.306;2022-07-04T09:55:01;6.30;;;5.20;;
10315;SDS011;5203;48.976;8.306;2022-07-04T09:57:31;5.22;;;4.82;;
10315;SDS011;5203;48.976;8.306;2022-07-04T10:00:15;4.70;;;4.40;;
10315;SDS011;5203;48.976;8.306;2022-07-04T10:02:49;5.90;;;5.25;;
10315;SDS011;5203;48.976;8.306;2022-07-04T10:05:23;5.38;;;4.97;;
10315;SDS011;5203;48.976;8.306;2022-07-04T10:07:54;5.22;;;4.90;;
10315;SDS011;5203;48.976;8.306;2022-07-04T10:10:22;5.30;;;5.00;;
10315;SDS011;5203;48.976;8.306;2022-07-04T10:13:03;5.55;;;5.15;;
10315;SDS011;5203;48.976;8.306;2022-07-04T10:15:30;5.93;;;5.53;;
10315;SDS011;5203;48.976;8.306;2022-07-04T10:17:58;5.07;;;4.68;;
10315;SDS011;5203;48.976;8.306;2022-07-04T10:20:25;5.00;;;4.70;;
10315;SDS011;5203;48.976;8.306;2022-07-04T10:22:51;5.72;;;5.43;;
10315;SDS011;5203;48.976;8.306;2022-07-04T10:25:17;6.35;;;5.95;;
10315;SDS011;5203;48.976;8.306;2022-07-04T10:27:43;6.65;;;6.05;;
10315;SDS011;5203;48.976;8.306;2022-07-04T10:30:11;6.35;;;5.95;;
10315;SDS011;5203;48.976;8.306;2022-07-04T10:32:38;6.00;;;5.60;;
10315;SDS011;5203;48.976;8.306;2022-07-04T10:35:08;6.43;;;5.93;;
10315;SDS011;5203;48.976;8.306;2022-07-04T10:40:42;6.75;;;6.20;;
10315;SDS011;5203;48.976;8.306;2022-07-04T10:54:08;6.80;;;6.20;;
10315;SDS011;5203;48.976;8.306;2022-07-04T10:56:35;6.22;;;5.75;;
10315;SDS011;5203;48.976;8.306;2022-07-04T10:59:03;6.22;;;5.90;;
10315;SDS011;5203;48.976;8.306;2022-07-04T11:01:34;6.75;;;6.35;;
10315;SDS011;5203;48.976;8.306;2022-07-04T11:03:59;5.95;;;5.55;;
10315;SDS011;5203;48.976;8.306;2022-07-04T11:09:22;6.05;;;5.45;;
10315;SDS011;5203;48.976;8.306;2022-07-04T11:11:50;5.70;;;5.30;;
10315;SDS011;5203;48.976;8.306;2022-07-04T11:17:07;6.53;;;6.13;;
10315;SDS011;5203;48.976;8.306;2022-07-04T11:19:35;6.60;;;6.30;;
10315;SDS011;5203;48.976;8.306;2022-07-04T11:22:02;12.68;;;6.80;;
10315;SDS011;5203;48.976;8.306;2022-07-04T11:24:30;6.15;;;5.65;;
10315;SDS011;5203;48.976;8.306;2022-07-04T11:26:56;6.03;;;5.72;;
10315;SDS011;5203;48.976;8.306;2022-07-04T11:29:23;5.68;;;5.38;;
10315;SDS011;5203;48.976;8.306;2022-07-04T11:31:50;5.35;;;5.05;;
10315;SDS011;5203;48.976;8.306;2022-07-04T11:34:17;6.15;;;5.65;;
10315;SDS011;5203;48.976;8.306;2022-07-04T11:36:45;9.75;;;6.07;;
10315;SDS011;5203;48.976;8.306;2022-07-04T11:39:12;6.43;;;5.95;;
10315;SDS011;5203;48.976;8.306;2022-07-04T11:41:49;7.07;;;6.68;;
10315;SDS011;5203;48.976;8.306;2022-07-04T11:44:40;6.88;;;6.55;;
10315;SDS011;5203;48.976;8.306;2022-07-04T11:50:00;7.35;;;6.95;;
10315;SDS011;5203;48.976;8.306;2022-07-04T11:52:35;7.97;;;7.57;;
10315;SDS011;5203;48.976;8.306;2022-07-04T11:55:08;8.70;;;8.30;;
10315;SDS011;5203;48.976;8.306;2022-07-04T11:57:40;8.38;;;8.02;;
10315;SDS011;5203;48.976;8.306;2022-07-04T12:00:10;9.10;;;8.77;;
10315;SDS011;5203;48.976;8.306;2022-07-04T12:02:38;10.05;;;9.55;;
10315;SDS011;5203;48.976;8.306;2022-07-04T12:05:05;10.15;;;9.55;;
10315;SDS011;5203;48.976;8.306;2022-07-04T12:07:34;9.05;;;8.55;;
10315;SDS011;5203;48.976;8.306;2022-07-04T12:15:36;9.90;;;9.40;;
10315;SDS011;5203;48.976;8.306;2022-07-04T12:18:03;11.18;;;10.57;;
10315;SDS011;5203;48.976;8.306;2022-07-04T12:20:31;11.25;;;10.52;;
10315;SDS011;5203;48.976;8.306;2022-07-04T12:23:00;10.90;;;10.40;;
10315;SDS011;5203;48.976;8.306;2022-07-04T12:25:33;10.38;;;9.98;;
10315;SDS011;5203;48.976;8.306;2022-07-04T12:28:05;12.05;;;11.43;;
10315;SDS011;5203;48.976;8.306;2022-07-04T12:30:36;12.43;;;11.75;;
10315;SDS011;5203;48.976;8.306;2022-07-04T12:33:13;12.90;;;12.40;;
10315;SDS011;5203;48.976;8.306;2022-07-04T12:35:45;12.90;;;12.40;;
10315;SDS011;5203;48.976;8.306;2022-07-04T12:38:20;13.00;;;12.50;;
10315;SDS011;5203;48.976;8.306;2022-07-04T12:40:53;11.73;;;11.15;;
10315;SDS011;5203;48.976;8.306;2022-07-04T12:43:24;11.70;;;11.23;;
10315;SDS011;5203;48.976;8.306;2022-07-04T12:45:53;11.95;;;11.45;;
10315;SDS011;5203;48.976;8.306;2022-07-04T12:48:24;12.93;;;12.13;;
10315;SDS011;5203;48.976;8.306;2022-07-04T12:50:52;11.48;;;11.07;;
10315;SDS011;5203;48.976;8.306;2022-07-04T12:53:19;11.73;;;11.23;;
10315;SDS011;5203;48.976;8.306;2022-07-04T12:55:45;13.18;;;12.55;;
10315;SDS011;5203;48.976;8.306;2022-07-04T12:58:12;13.10;;;12.48;;
10315;SDS011;5203;48.976;8.306;2022-07-04T13:00:39;13.63;;;13.05;;
10315;SDS011;5203;48.976;8.306;2022-07-04T13:03:05;13.95;;;13.45;;
10315;SDS011;5203;48.976;8.306;2022-07-04T13:05:35;14.48;;;13.88;;
10315;SDS011;5203;48.976;8.306;2022-07-04T13:08:02;13.85;;;13.35;;
10315;SDS011;5203;48.976;8.306;2022-07-04T13:10:29;14.80;;;14.13;;
10315;SDS011;5203;48.976;8.306;2022-07-04T13:12:57;15.68;;;14.98;;
10315;SDS011;5203;48.976;8.306;2022-07-04T13:15:23;14.55;;;14.05;;
10315;SDS011;5203;48.976;8.306;2022-07-04T13:17:48;14.07;;;13.48;;
10315;SDS011;5203;48.976;8.306;2022-07-04T13:20:14;15.55;;;14.45;;
10315;SDS011;5203;48.976;8.306;2022-07-04T13:22:40;14.38;;;13.77;;
10315;SDS011;5203;48.976;8.306;2022-07-04T13:25:06;13.25;;;12.70;;
10315;SDS011;5203;48.976;8.306;2022-07-04T13:27:32;14.13;;;13.43;;
10315;SDS011;5203;48.976;8.306;2022-07-04T13:29:58;13.23;;;12.63;;
10315;SDS011;5203;48.976;8.306;2022-07-04T13:32:24;12.85;;;12.35;;
10315;SDS011;5203;48.976;8.306;2022-07-04T13:34:49;12.95;;;12.35;;
10315;SDS011;5203;48.976;8.306;2022-07-04T13:37:16;12.85;;;12.18;;
10315;SDS011;5203;48.976;8.306;2022-07-04T13:39:44;12.18;;;11.70;;
10315;SDS011;5203;48.976;8.306;2022-07-04T13:42:10;12.93;;;12.18;;
10315;SDS011;5203;48.976;8.306;2022-07-04T13:44:36;11.48;;;10.98;;
10315;SDS011;5203;48.976;8.306;2022-07-04T13:47:02;12.35;;;11.85;;
10315;SDS011;5203;48.976;8.306;2022-07-04T13:49:28;12.40;;;11.82;;
10315;SDS011;5203;48.976;8.306;2022-07-04T13:51:54;10.18;;;9.75;;
10315;SDS011;5203;48.976;8.306;2022-07-04T13:54:19;11.18;;;10.65;;
10315;SDS011;5203;48.976;8.306;2022-07-04T13:56:45;10.55;;;10.13;;
10315;SDS011;5203;48.976;8.306;2022-07-04T13:59:13;11.60;;;11.10;;
10315;SDS011;5203;48.976;8.306;2022-07-04T14:01:39;11.57;;;10.98;;
10315;SDS011;5203;48.976;8.306;2022-07-04T14:04:05;12.00;;;11.40;;
10315;SDS011;5203;48.976;8.306;2022-07-04T14:06:31;11.88;;;11.32;;
10315;SDS011;5203;48.976;8.306;2022-07-04T14:08:57;11.48;;;10.93;;
10315;SDS011;5203;48.976;8.306;2022-07-04T14:11:23;11.10;;;10.70;;
10315;SDS011;5203;48.976;8.306;2022-07-04T14:13:49;10.50;;;10.10;;
10315;SDS011;5203;48.976;8.306;2022-07-04T14:16:15;10.95;;;10.55;;
10315;SDS011;5203;48.976;8.306;2022-07-04T14:18:41;10.40;;;10.00;;
10315;SDS011;5203;48.976;8.306;2022-07-04T14:21:07;9.93;;;9.50;;
10315;SDS011;5203;48.976;8.306;2022-07-04T14:23:32;10.50;;;9.88;;
10315;SDS011;5203;48.976;8.306;2022-07-04T14:28:34;10.00;;;9.50;;
10315;SDS011;5203;48.976;8.306;2022-07-04T14:31:00;10.32;;;9.82;;
10315;SDS011;5203;48.976;8.306;2022-07-04T14:33:26;10.02;;;9.63;;
10315;SDS011;5203;48.976;8.306;2022-07-04T14:35:52;10.57;;;9.98;;
10315;SDS011;5203;48.976;8.306;2022-07-04T14:38:18;10.27;;;9.88;;
10315;SDS011;5203;48.976;8.306;2022-07-04T14:40:44;9.73;;;9.32;;
10315;SDS011;5203;48.976;8.306;2022-07-04T14:43:13;10.60;;;10.20;;
10315;SDS011;5203;48.976;8.306;2022-07-04T14:45:39;9.93;;;9.52;;
10315;SDS011;5203;48.976;8.306;2022-07-04T14:48:05;11.13;;;10.50;;
10315;SDS011;5203;48.976;8.306;2022-07-04T14:50:31;10.77;;;10.18;;
10315;SDS011;5203;48.976;8.306;2022-07-04T14:52:57;10.82;;;10.13;;
10315;SDS011;5203;48.976;8.306;2022-07-04T14:55:23;10.05;;;9.65;;
10315;SDS011;5203;48.976;8.306;2022-07-04T14:57:48;10.90;;;10.40;;
10315;SDS011;5203;48.976;8.306;2022-07-04T15:00:14;10.48;;;9.98;;
10315;SDS011;5203;48.976;8.306;2022-07-04T15:02:40;10.25;;;9.75;;
10315;SDS011;5203;48.976;8.306;2022-07-04T15:05:06;9.95;;;9.55;;
10315;SDS011;5203;48.976;8.306;2022-07-04T15:07:33;10.13;;;9.73;;
10315;SDS011;5203;48.976;8.306;2022-07-04T15:09:59;9.85;;;9.30;;
10315;SDS011;5203;48.976;8.306;2022-07-04T15:12:25;9.68;;;9.27;;
10315;SDS011;5203;48.976;8.306;2022-07-04T15:14:50;9.65;;;9.18;;
10315;SDS011;5203;48.976;8.306;2022-07-04T15:17:16;9.55;;;9.10;;
10315;SDS011;5203;48.976;8.306;2022-07-04T15:19:42;9.38;;;8.90;;
10315;SDS011;5203;48.976;8.306;2022-07-04T15:22:27;8.93;;;8.32;;
10315;SDS011;5203;48.976;8.306;2022-07-04T15:25:11;9.13;;;8.82;;
10315;SDS011;5203;48.976;8.306;2022-07-04T15:27:39;9.38;;;8.98;;
10315;SDS011;5203;48.976;8.306;2022-07-04T15:30:05;9.68;;;9.02;;
10315;SDS011;5203;48.976;8.306;2022-07-04T15:32:32;10.05;;;9.40;;
10315;SDS011;5203;48.976;8.306;2022-07-04T15:34:58;8.55;;;8.23;;
10315;SDS011;5203;48.976;8.306;2022-07-04T15:37:23;9.73;;;8.80;;
10315;SDS011;5203;48.976;8.306;2022-07-04T15:39:49;8.05;;;7.75;;
10315;SDS011;5203;48.976;8.306;2022-07-04T15:42:15;8.13;;;7.82;;